Time;durP1;ratioP1;P1;durP2;ratioP2;P2;SDS_P1;SDS_P2;PMS_P1;PMS_P2;Temp;Humidity;BMP_temperature;BMP_pressure;BME280_temperature;BME280_humidity;BME280_pressure;Samples;Min_cycle;Max_cycle;Signal;HPM_P1;HPM_P2
2022/09/28 04:22:33;;;;;;;0.82;0.73;;;;;;;9.17;100.00;98276.06;5088887;28;20332;-63
2022/09/28 04:24:59;;;;;;;1.17;1.08;;;;;;;9.21;100.00;98284.44;5087828;28;20113;-63
2022/09/28 04:30:09;;;;;;;0.85;0.80;;;;;;;9.23;100.00;98280.53;5087544;28;20480;-64
2022/09/28 04:32:35;;;;;;;3.08;1.70;;;;;;;9.26;100.00;98279.31;5087572;28;20131;-63
2022/09/28 04:35:00;;;;;;;2.58;1.45;;;;;;;9.28;100.00;98271.13;5088159;28;20546;-59
2022/09/28 04:37:26;;;;;;;2.28;1.38;;;;;;;9.27;100.00;98277.47;5087689;28;20037;-60
2022/09/28 04:39:51;;;;;;;1.00;0.95;;;;;;;9.22;100.00;98275.44;5087654;28;20036;-61
2022/09/28 04:42:18;;;;;;;4.38;1.50;;;;;;;9.27;100.00;98299.53;5070636;28;20040;-60
2022/09/28 04:44:44;;;;;;;4.25;1.45;;;;;;;9.30;100.00;98291.13;5087540;28;20040;-61
2022/09/28 04:47:10;;;;;;;4.75;1.52;;;;;;;9.30;100.00;98290.31;5087396;28;20060;-61
2022/09/28 04:49:54;;;;;;;2.58;1.40;;;;;;;9.30;100.00;98293.78;5088964;28;20078;-61
2022/09/28 04:52:26;;;;;;;3.28;1.20;;;;;;;9.31;100.00;98283.97;5088541;28;20408;-60
2022/09/28 04:54:51;;;;;;;1.98;1.20;;;;;;;9.29;100.00;98280.72;5088764;28;20044;-64
2022/09/28 04:57:17;;;;;;;2.88;1.80;;;;;;;9.32;100.00;98282.94;5088528;28;20074;-62
2022/09/28 04:59:42;;;;;;;6.05;1.38;;;;;;;9.31;100.00;98287.44;5087248;28;20039;-60
2022/09/28 05:02:08;;;;;;;4.32;1.80;;;;;;;9.30;100.00;98287.66;5086855;28;20036;-61
2022/09/28 05:04:54;;;;;;;2.20;1.58;;;;;;;9.28;100.00;98276.44;5088555;28;20071;-60
2022/09/28 05:07:35;;;;;;;5.55;1.50;;;;;;;9.28;100.00;98284.41;5086997;28;20036;-60
2022/09/28 05:10:03;;;;;;;2.55;1.65;;;;;;;9.30;100.00;98285.00;5086959;28;20504;-60
2022/09/28 05:12:31;;;;;;;;;;;;;;;9.31;100.00;98284.78;5087157;28;20517;-60
2022/09/28 05:14:59;;;;;;;4.18;1.42;;;;;;;9.30;100.00;98291.13;5086908;28;19916;-61
2022/09/28 05:17:25;;;;;;;2.70;1.38;;;;;;;9.30;100.00;98291.13;5088122;28;20051;-57
2022/09/28 05:20:08;;;;;;;3.13;1.00;;;;;;;9.30;100.00;98296.44;5086527;28;20123;-62
2022/09/28 05:22:33;;;;;;;3.92;1.90;;;;;;;9.27;100.00;98299.53;5086656;28;20433;-60
2022/09/28 05:24:59;;;;;;;5.55;1.40;;;;;;;9.32;100.00;98310.31;5086762;28;20093;-60
2022/09/28 05:27:28;;;;;;;3.05;1.80;;;;;;;9.33;100.00;98301.34;5086606;28;20054;-60
2022/09/28 05:30:03;;;;;;;2.20;1.40;;;;;;;9.34;100.00;98308.28;5086509;28;20062;-60
2022/09/28 05:32:28;;;;;;;6.28;1.58;;;;;;;9.36;100.00;98306.22;5082106;28;20135;-61
2022/09/28 05:35:30;;;;;;;2.70;1.40;;;;;;;9.34;100.00;98310.13;5058407;28;20048;-57
2022/09/28 05:38:01;;;;;;;2.33;1.58;;;;;;;9.34;100.00;98313.59;5074253;28;20035;-61
2022/09/28 05:40:26;;;;;;;3.17;1.48;;;;;;;9.37;100.00;98317.66;5072667;28;20507;-61
2022/09/28 05:42:51;;;;;;;8.63;1.73;;;;;;;9.37;100.00;98323.78;5072878;28;20124;-57
2022/09/28 05:45:17;;;;;;;6.07;1.38;;;;;;;9.38;100.00;98321.94;5072726;28;20039;-59
2022/09/28 05:47:45;;;;;;;2.28;1.13;;;;;;;9.38;100.00;98324.59;5072543;28;20032;-59
2022/09/28 05:50:14;;;;;;;2.25;1.42;;;;;;;9.38;100.00;98322.75;5072226;28;20036;-59
2022/09/28 05:52:42;;;;;;;1.98;1.48;;;;;;;9.37;100.00;98321.13;5072685;28;20036;-63
2022/09/28 05:55:08;;;;;;;2.53;1.50;;;;;;;9.42;100.00;98323.16;5072664;28;20155;-62
2022/09/28 05:57:34;;;;;;;3.67;1.33;;;;;;;9.39;100.00;98321.75;5072511;28;20040;-61
2022/09/28 06:00:03;;;;;;;2.33;1.05;;;;;;;9.40;100.00;98315.41;5072315;28;20032;-61
2022/09/28 06:02:37;;;;;;;0.93;0.77;;;;;;;9.39;100.00;98316.44;5073841;28;20043;-60
2022/09/28 06:05:04;;;;;;;2.08;1.10;;;;;;;9.44;100.00;98313.13;5072558;28;20036;-60
2022/09/28 06:07:29;;;;;;;1.95;1.08;;;;;;;9.44;100.00;98311.28;5072265;28;20035;-59
2022/09/28 06:09:55;;;;;;;3.15;1.10;;;;;;;9.46;100.00;98314.56;5072248;28;20051;-62
2022/09/28 06:12:37;;;;;;;2.97;1.30;;;;;;;9.48;100.00;98325.78;5072285;28;20033;-60
2022/09/28 06:15:08;;;;;;;9.80;2.72;;;;;;;9.48;100.00;98335.59;5072207;28;20037;-62
2022/09/28 06:17:33;;;;;;;2.30;1.38;;;;;;;9.48;100.00;98332.94;5073531;28;20059;-64
2022/09/28 06:20:17;;;;;;;3.60;1.48;;;;;;;9.46;100.00;98337.66;5073013;28;20110;-48
2022/09/28 06:22:54;;;;;;;7.60;1.20;;;;;;;9.46;100.00;98335.81;5073446;28;20044;-49
2022/09/28 06:25:22;;;;;;;1.67;1.27;;;;;;;9.47;100.00;98340.09;5071923;28;20131;-48
2022/09/28 06:27:58;;;;;;;3.72;1.92;;;;;;;9.51;100.00;98335.97;5071936;28;20033;-49
2022/09/28 06:30:25;;;;;;;2.75;1.70;;;;;;;9.51;100.00;98340.47;5071375;28;20044;-48
2022/09/28 06:32:53;;;;;;;4.75;1.35;;;;;;;9.51;100.00;98343.94;5073150;28;20119;-49
2022/09/28 06:35:20;;;;;;;2.33;1.37;;;;;;;9.52;100.00;98345.59;5071780;28;20036;-50
2022/09/28 06:37:46;;;;;;;2.88;1.25;;;;;;;9.55;100.00;98352.31;5071994;28;20043;-50
2022/09/28 06:40:12;;;;;;;5.22;1.60;;;;;;;9.56;100.00;98347.81;5068369;28;20080;-61
2022/09/28 06:42:37;;;;;;;5.05;1.35;;;;;;;9.58;100.00;98356.38;5071520;28;20040;-61
2022/09/28 06:45:29;;;;;;;2.10;1.45;;;;;;;9.59;100.00;98358.03;5055433;28;20692;-62
2022/09/28 06:48:09;;;;;;;4.80;1.52;;;;;;;9.63;100.00;98353.91;5071463;28;20116;-61
2022/09/28 06:50:39;;;;;;;1.67;1.08;;;;;;;9.70;100.00;98360.81;5070412;28;20043;-62
2022/09/28 06:53:27;;;;;;;3.70;1.90;;;;;;;9.71;100.00;98365.09;5072405;28;20067;-62
2022/09/28 06:56:01;;;;;;;5.93;1.77;;;;;;;9.69;100.00;98375.16;5071070;28;20040;-62
2022/09/28 06:58:27;;;;;;;4.20;1.60;;;;;;;9.72;100.00;98381.91;5071264;28;20105;-62
2022/09/28 07:00:58;;;;;;;2.60;1.60;;;;;;;9.73;100.00;98379.03;5070064;28;20051;-62
2022/09/28 07:03:25;;;;;;;2.80;1.15;;;;;;;9.74;100.00;98398.44;5071157;28;20047;-62
2022/09/28 07:06:11;;;;;;;1.95;1.50;;;;;;;9.80;100.00;98405.56;5072533;28;20519;-62
2022/09/28 07:09:12;;;;;;;5.32;1.55;;;;;;;9.86;100.00;98406.56;5010130;28;20407;-62
2022/09/28 07:12:03;;;;;;;4.07;1.65;;;;;;;9.97;100.00;98421.84;5067307;28;20456;-62
2022/09/28 07:14:38;;;;;;;3.35;2.05;;;;;;;10.01;100.00;98417.72;5070915;28;20089;-61
2022/09/28 07:17:06;;;;;;;2.55;1.60;;;;;;;10.09;100.00;98421.97;5072465;28;20119;-61
2022/09/28 07:19:33;;;;;;;2.95;1.42;;;;;;;10.13;100.00;98418.69;5070636;28;20127;-62
2022/09/28 07:21:59;;;;;;;2.00;1.30;;;;;;;10.14;100.00;98427.47;5071385;28;20406;-62
2022/09/28 07:24:25;;;;;;;5.75;1.85;;;;;;;10.19;100.00;98436.44;5071921;28;20097;-62
2022/09/28 07:27:11;;;;;;;5.65;1.73;;;;;;;10.20;100.00;98440.75;5040708;28;20051;-62
2022/09/28 07:29:54;;;;;;;5.45;1.50;;;;;;;10.24;100.00;98438.50;5070233;28;20040;-62
2022/09/28 07:32:36;;;;;;;2.15;1.15;;;;;;;10.25;100.00;98440.13;5071600;28;20037;-62
2022/09/28 07:35:33;;;;;;;5.25;1.58;;;;;;;10.25;100.00;98443.59;5048515;28;20080;-62
2022/09/28 07:38:02;;;;;;;5.72;1.75;;;;;;;10.31;100.00;98447.25;5072101;28;20064;-62
2022/09/28 07:43:19;;;;;;;7.57;1.88;;;;;;;10.36;100.00;98450.06;5070516;28;20497;-63
2022/09/28 07:45:47;;;;;;;3.05;1.80;;;;;;;10.44;100.00;98446.34;5070202;28;20048;-59
2022/09/28 07:48:17;;;;;;;3.15;1.55;;;;;;;10.48;100.00;98445.69;5071649;28;20457;-61
2022/09/28 07:51:22;;;;;;;3.45;1.67;;;;;;;10.52;100.00;98449.56;5058924;28;20127;-61
2022/09/28 07:54:05;;;;;;;4.30;1.55;;;;;;;10.53;100.00;98453.84;5071600;28;20048;-62
2022/09/28 07:56:33;;;;;;;4.75;1.80;;;;;;;10.60;100.00;98456.47;5071271;28;20413;-62
2022/09/28 07:59:17;;;;;;;5.80;2.10;;;;;;;10.60;100.00;98457.28;5070248;28;20044;-61
2022/09/28 08:02:01;;;;;;;3.72;1.67;;;;;;;10.67;100.00;98461.72;5070991;28;20071;-61
2022/09/28 08:04:28;;;;;;;4.57;2.33;;;;;;;10.67;100.00;98467.06;5070072;28;20501;-61
2022/09/28 08:06:54;;;;;;;2.88;1.80;;;;;;;10.70;100.00;98474.63;5070063;28;20110;-61
2022/09/28 08:09:20;;;;;;;3.25;1.77;;;;;;;10.70;100.00;98471.97;5070067;28;20052;-62
2022/09/28 08:12:06;;;;;;;5.53;1.67;;;;;;;10.78;100.00;98479.69;5063052;28;20111;-61
2022/09/28 08:14:46;;;;;;;6.30;3.05;;;;;;;10.76;100.00;98481.75;5069898;28;20131;-62
2022/09/28 08:17:34;;;;;;;3.22;2.00;;;;;;;10.79;100.00;98481.31;5071215;28;20051;-61
2022/09/28 08:22:48;;;;;;;5.43;2.20;;;;;;;10.73;100.00;98485.66;5071449;28;20048;-62
2022/09/28 08:25:14;;;;;;;5.53;1.98;;;;;;;10.72;100.00;98491.19;5069719;28;20037;-61
2022/09/28 08:27:39;;;;;;;4.05;2.10;;;;;;;10.76;100.00;98497.75;5069744;28;20497;-63
2022/09/28 08:30:06;;;;;;;3.72;2.10;;;;;;;10.80;100.00;98489.06;5069510;28;20451;-64
2022/09/28 08:33:14;;;;;;;6.35;2.78;;;;;;;10.81;100.00;98495.22;5028957;28;20132;-64
2022/09/28 08:36:00;;;;;;;6.43;2.70;;;;;;;10.87;100.00;98495.16;5028561;28;20049;-63
2022/09/28 08:38:44;;;;;;;3.63;2.45;;;;;;;11.00;100.00;98504.91;5060665;28;20071;-62
2022/09/28 08:41:56;;;;;;;5.97;2.33;;;;;;;11.07;100.00;98516.31;5069095;28;20037;-63
2022/09/28 08:44:59;;;;;;;6.72;2.35;;;;;;;11.16;100.00;98514.19;5069456;28;20040;-62
2022/09/28 08:51:18;;;;;;;6.40;2.28;;;;;;;11.29;100.00;98524.75;5070071;28;20555;-62
2022/09/28 08:54:30;;;;;;;6.53;3.05;;;;;;;11.32;100.00;98521.63;5065677;28;20089;-63
2022/09/28 08:57:09;;;;;;;3.78;2.20;;;;;;;11.38;100.00;98517.25;5069684;28;20174;-63
2022/09/28 08:59:44;;;;;;;16.83;3.87;;;;;;;11.39;100.00;98517.03;5069597;28;20036;-64
2022/09/28 09:02:24;;;;;;;6.10;3.13;;;;;;;11.36;100.00;98527.34;5069015;28;20294;-63
2022/09/28 09:04:53;;;;;;;7.47;2.88;;;;;;;11.37;100.00;98526.31;5069511;28;20044;-63
2022/09/28 09:07:30;;;;;;;6.20;2.05;;;;;;;11.38;100.00;98530.59;5053893;28;20443;-63
2022/09/28 09:10:32;;;;;;;4.75;2.55;;;;;;;11.48;100.00;98528.25;5073479;28;20388;-62
2022/09/28 09:13:11;;;;;;;5.68;2.03;;;;;;;11.60;100.00;98533.66;5073471;28;20036;-63
2022/09/28 09:15:37;;;;;;;7.93;2.42;;;;;;;11.65;100.00;98523.94;5073399;28;20040;-62
2022/09/28 09:18:32;;;;;;;3.97;2.25;;;;;;;11.79;100.00;98529.13;5073440;28;20032;-63
2022/09/28 09:21:42;;;;;;;4.28;2.22;;;;;;;11.93;100.00;98536.81;5070848;28;20025;-63
2022/09/28 09:24:11;;;;;;;5.70;2.72;;;;;;;11.93;100.00;98541.31;5011978;28;20048;-62
2022/09/28 09:26:38;;;;;;;21.90;9.55;;;;;;;11.99;100.00;98548.44;5088367;28;20024;-63
2022/09/28 09:29:27;;;;;;;8.68;4.60;;;;;;;11.92;100.00;98545.03;5081606;28;20047;-63
2022/09/28 09:32:19;;;;;;;3.42;2.25;;;;;;;11.96;100.00;98551.56;5077018;28;20440;-62
2022/09/28 09:35:24;;;;;;;9.68;2.35;;;;;;;11.93;100.00;98552.00;5064963;28;20039;-63
2022/09/28 09:38:23;;;;;;;5.20;2.13;;;;;;;12.07;100.00;98550.81;5078626;28;20037;-63
2022/09/28 09:41:41;;;;;;;4.90;2.70;;;;;;;12.06;100.00;98559.88;5072023;28;20124;-63
2022/09/28 09:44:25;;;;;;;5.15;2.08;;;;;;;12.06;100.00;98551.88;5077582;28;20040;-63
2022/09/28 09:47:28;;;;;;;7.78;2.65;;;;;;;12.11;100.00;98561.84;5067479;28;20525;-62
2022/09/28 09:50:18;;;;;;;5.40;2.53;;;;;;;12.09;100.00;98553.25;5088331;28;20084;-62
2022/09/28 09:52:51;;;;;;;3.60;1.98;;;;;;;12.18;100.00;98559.91;5063561;28;20119;-62
2022/09/28 09:55:41;;;;;;;3.67;2.35;;;;;;;12.16;100.00;98562.00;5082317;28;20036;-63
2022/09/28 09:58:40;;;;;;;3.65;2.35;;;;;;;12.17;97.93;98561.75;5089013;28;20515;-65
2022/09/28 10:01:38;;;;;;;5.72;1.95;;;;;;;12.18;100.00;98559.91;5082871;28;20034;-63
2022/09/28 10:04:31;;;;;;;5.15;2.63;;;;;;;12.25;100.00;98560.63;5075647;28;20115;-62
2022/09/28 10:07:08;;;;;;;4.28;1.90;;;;;;;12.44;100.00;98558.75;5084212;28;20058;-62
2022/09/28 10:09:40;;;;;;;7.47;2.78;;;;;;;12.67;97.02;98563.38;5071653;28;20032;-61
2022/09/28 10:12:25;;;;;;;6.03;2.22;;;;;;;12.59;94.31;98559.19;5064023;28;20048;-60
2022/09/28 10:14:54;;;;;;;3.53;2.00;;;;;;;12.80;93.46;98557.84;5071630;28;20386;-62
2022/09/28 10:17:25;;;;;;;6.47;2.40;;;;;;;12.88;93.03;98567.41;5071707;28;20448;-61
2022/09/28 10:20:15;;;;;;;9.63;2.40;;;;;;;12.65;94.81;98566.28;5073090;28;20119;-62
2022/09/28 10:22:57;;;;;;;6.60;2.17;;;;;;;12.60;95.33;98565.34;5072010;28;20032;-61
2022/09/28 10:25:23;;;;;;;3.35;2.10;;;;;;;12.57;98.42;98569.25;5071731;28;20068;-62
2022/09/28 10:27:51;;;;;;;4.78;2.47;;;;;;;12.65;99.02;98571.63;5071796;28;20044;-61
2022/09/28 10:30:24;;;;;;;5.50;2.38;;;;;;;12.83;100.00;98552.03;5071474;28;20036;-61
2022/09/28 10:32:53;;;;;;;5.90;2.35;;;;;;;13.40;95.21;98551.56;5071951;28;20405;-62
2022/09/28 10:35:23;;;;;;;5.45;2.05;;;;;;;14.21;93.65;98556.00;5072209;28;20059;-58
2022/09/28 10:38:14;;;;;;;4.75;2.03;;;;;;;14.75;85.84;98559.22;5071893;28;20036;-58
2022/09/28 10:41:12;;;;;;;13.95;2.55;;;;;;;14.84;82.20;98568.47;5071470;28;20036;-56
2022/09/28 10:44:07;;;;;;;6.95;2.03;;;;;;;15.09;80.62;98564.59;5071783;28;20713;-59
2022/09/28 10:47:06;;;;;;;4.50;2.00;;;;;;;15.66;78.81;98565.25;5063548;28;20116;-59
2022/09/28 10:49:40;;;;;;;4.57;2.45;;;;;;;16.10;75.81;98561.78;5071710;28;20097;-61
2022/09/28 10:52:37;;;;;;;3.15;1.73;;;;;;;16.32;74.11;98561.81;5071169;28;20036;-59
2022/09/28 10:55:25;;;;;;;4.65;1.58;;;;;;;15.97;70.18;98560.28;5071567;28;20058;-59
2022/09/28 10:57:51;;;;;;;5.35;2.10;;;;;;;16.26;70.16;98559.06;5071500;28;20040;-55
2022/09/28 11:00:41;;;;;;;6.35;2.22;;;;;;;16.00;67.23;98554.44;5071118;28;20059;-59
2022/09/28 11:03:25;;;;;;;2.83;1.65;;;;;;;15.94;74.75;98550.06;5071409;28;20038;-57
2022/09/28 11:06:06;;;;;;;2.42;1.70;;;;;;;16.29;67.92;98545.09;5071173;28;20041;-59
2022/09/28 11:08:42;;;;;;;2.28;1.55;;;;;;;16.72;67.61;98551.53;5071155;28;20218;-58
2022/09/28 11:11:18;;;;;;;2.55;1.60;;;;;;;17.16;69.08;98546.00;5070824;28;20123;-58
2022/09/28 11:13:53;;;;;;;2.25;1.50;;;;;;;17.57;61.72;98548.97;5071119;28;20123;-59
2022/09/28 11:16:31;;;;;;;4.40;1.60;;;;;;;18.33;61.97;98535.09;5070932;28;20033;-61
2022/09/28 11:19:19;;;;;;;1.48;1.20;;;;;;;18.42;60.35;98544.28;5070982;28;20130;-61
2022/09/28 11:21:47;;;;;;;2.47;1.45;;;;;;;18.18;56.75;98541.22;5058175;28;20036;-61
2022/09/28 11:24:14;;;;;;;1.38;1.15;;;;;;;18.78;56.84;98541.69;5071065;28;20037;-61
2022/09/28 11:26:44;;;;;;;1.30;1.20;;;;;;;18.87;55.31;98537.41;5070719;28;20082;-59
2022/09/28 11:29:25;;;;;;;3.97;1.55;;;;;;;18.00;55.71;98536.34;5072020;28;20045;-61
2022/09/28 11:32:10;;;;;;;2.13;1.20;;;;;;;18.41;54.08;98530.00;5071393;28;20044;-62
2022/09/28 11:34:56;;;;;;;2.92;1.20;;;;;;;18.49;53.55;98539.44;5070506;28;20036;-63
2022/09/28 11:37:34;;;;;;;2.92;1.35;;;;;;;18.23;56.57;98540.44;5070532;28;20052;-62
2022/09/28 11:40:28;;;;;;;1.98;1.80;;;;;;;18.43;57.01;98537.81;5071986;28;20033;-59
2022/09/28 11:43:05;;;;;;;2.50;1.38;;;;;;;18.45;53.61;98532.97;5071945;28;20056;-59
2022/09/28 11:45:53;;;;;;;2.15;1.05;;;;;;;17.94;54.85;98530.09;5070408;28;20389;-58
2022/09/28 11:48:26;;;;;;;0.80;0.80;;;;;;;18.40;56.86;98533.78;5070508;28;20032;-61
2022/09/28 11:51:02;;;;;;;1.88;1.40;;;;;;;18.20;57.30;98524.81;5070078;28;20040;-59
2022/09/28 11:53:32;;;;;;;2.47;1.20;;;;;;;18.38;56.98;98527.81;5071794;28;20115;-61
2022/09/28 11:56:25;;;;;;;4.82;1.40;;;;;;;18.59;53.91;98530.59;5070355;28;20036;-61
2022/09/28 11:58:56;;;;;;;2.10;1.40;;;;;;;18.66;56.62;98531.97;5070527;28;20040;-59
2022/09/28 12:01:41;;;;;;;2.33;1.35;;;;;;;18.27;55.43;98528.06;5070328;28;20115;-61
2022/09/28 12:04:36;;;;;;;1.25;0.95;;;;;;;17.25;56.19;98530.19;5070356;28;20032;-57
2022/09/28 12:07:18;;;;;;;4.63;1.38;;;;;;;16.88;59.48;98533.63;5070241;28;20028;-58
2022/09/28 12:09:53;;;;;;;1.42;1.20;;;;;;;16.97;60.57;98532.13;5071704;28;20041;-56
2022/09/28 12:12:37;;;;;;;2.45;1.27;;;;;;;17.56;60.49;98529.31;5069991;28;20039;-59
2022/09/28 12:15:22;;;;;;;3.13;1.38;;;;;;;17.74;57.83;98530.81;5070199;28;20401;-58
2022/09/28 12:17:59;;;;;;;2.55;1.17;;;;;;;18.46;53.27;98515.72;5071425;28;20523;-56
2022/09/28 12:20:29;;;;;;;6.05;1.65;;;;;;;19.18;51.26;98512.03;5071059;28;20123;-57
2022/09/28 12:23:13;;;;;;;3.03;1.20;;;;;;;18.97;52.57;98526.59;5071353;28;20203;-57
2022/09/28 12:25:45;;;;;;;2.00;0.80;;;;;;;19.53;49.60;98523.88;5070008;28;20036;-55
2022/09/28 12:28:38;;;;;;;1.25;0.80;;;;;;;19.91;49.75;98514.34;5071463;28;20029;-60
2022/09/28 12:31:33;;;;;;;1.15;1.00;;;;;;;20.14;47.35;98512.88;5070999;28;20043;-60
2022/09/28 12:34:01;;;;;;;1.08;0.98;;;;;;;20.77;45.93;98515.81;5071443;28;20045;-61
2022/09/28 12:36:59;;;;;;;1.65;1.05;;;;;;;20.65;43.87;98512.63;5071252;28;20052;-56
2022/09/28 12:40:02;;;;;;;1.60;0.93;;;;;;;20.45;45.71;98518.19;5071281;28;20036;-55
2022/09/28 12:42:46;;;;;;;1.25;0.90;;;;;;;20.32;45.95;98514.16;5060932;28;20517;-57
2022/09/28 12:45:42;;;;;;;2.60;0.80;;;;;;;19.43;46.21;98510.38;5075195;28;20115;-55
2022/09/28 12:48:36;;;;;;;0.85;0.70;;;;;;;19.15;47.88;98512.56;5075044;28;20120;-60
2022/09/28 12:51:08;;;;;;;2.05;0.82;;;;;;;19.78;47.84;98515.75;5063622;28;20051;-59
2022/09/28 12:53:55;;;;;;;1.70;1.00;;;;;;;19.58;45.43;98513.09;5073863;28;20040;-59
2022/09/28 12:56:26;;;;;;;1.80;0.88;;;;;;;19.98;44.66;98504.03;5074965;28;20127;-58
2022/09/28 12:59:14;;;;;;;2.70;0.75;;;;;;;20.62;44.76;98499.69;5075304;28;20048;-60
2022/09/28 13:01:57;;;;;;;2.45;0.77;;;;;;;21.34;44.29;98500.75;5074696;28;20478;-61
2022/09/28 13:04:29;;;;;;;1.42;0.75;;;;;;;20.69;43.36;98502.06;5074840;28;20032;-61
2022/09/28 13:06:59;;;;;;;2.20;0.60;;;;;;;20.25;42.90;98498.25;5074876;28;20038;-60
2022/09/28 13:09:30;;;;;;;0.45;0.45;;;;;;;19.23;46.01;98497.72;5074724;28;20127;-60
2022/09/28 13:12:18;;;;;;;1.95;0.95;;;;;;;18.51;47.84;98494.16;5074125;28;20123;-61
2022/09/28 13:15:15;;;;;;;1.40;1.02;;;;;;;17.64;48.02;98499.22;5074648;28;20056;-56
2022/09/28 13:17:57;;;;;;;1.55;0.70;;;;;;;17.13;52.54;98497.28;5074479;28;20036;-60
2022/09/28 13:20:40;;;;;;;1.77;0.85;;;;;;;16.89;53.67;98503.03;5074312;28;20080;-60
2022/09/28 13:23:49;;;;;;;0.68;0.52;;;;;;;16.68;57.23;98501.97;5074547;28;20447;-61
2022/09/28 13:26:30;;;;;;;2.50;1.17;;;;;;;16.44;56.25;98496.13;5074223;28;20409;-61
2022/09/28 13:29:17;;;;;;;2.03;0.80;;;;;;;16.35;56.55;98494.94;5074430;28;20028;-60
2022/09/28 13:32:02;;;;;;;2.78;0.70;;;;;;;16.95;56.17;98496.63;5073995;28;20043;-61
2022/09/28 13:34:31;;;;;;;0.65;0.63;;;;;;;17.77;51.34;98486.38;5074480;28;20051;-58
2022/09/28 13:37:15;;;;;;;2.38;1.05;;;;;;;17.94;50.43;98496.97;5074297;28;20393;-60
2022/09/28 13:39:44;;;;;;;0.82;0.68;;;;;;;18.33;50.84;98495.50;5074180;28;20115;-61
2022/09/28 13:42:20;;;;;;;2.53;0.75;;;;;;;18.47;46.78;98498.47;5073080;28;20416;-60
2022/09/28 13:44:59;;;;;;;0.70;0.67;;;;;;;17.83;49.29;98501.50;5074237;28;20039;-61
2022/09/28 13:47:40;;;;;;;1.10;0.73;;;;;;;17.62;49.24;98512.13;5074141;28;20115;-59
2022/09/28 13:50:21;;;;;;;0.70;0.60;;;;;;;17.33;50.38;98502.78;5074329;28;20439;-61
2022/09/28 13:52:55;;;;;;;0.88;0.80;;;;;;;17.02;51.35;98504.47;5080306;28;20087;-61
2022/09/28 13:55:24;;;;;;;2.25;0.60;;;;;;;16.48;52.96;98502.59;5083048;28;20041;-60
2022/09/28 13:57:56;;;;;;;1.27;0.70;;;;;;;16.28;52.77;98499.69;5088477;28;20503;-60
2022/09/28 14:00:25;;;;;;;1.98;0.80;;;;;;;16.13;53.81;98511.09;5076887;28;20043;-62
2022/09/28 14:03:02;;;;;;;1.88;0.50;;;;;;;15.83;51.62;98508.03;5087099;28;20043;-62
2022/09/28 14:05:36;;;;;;;0.98;0.38;;;;;;;15.87;52.38;98507.28;5085055;28;20032;-62
2022/09/28 14:08:08;;;;;;;1.10;0.70;;;;;;;15.88;53.76;98505.41;5077265;28;20127;-61
2022/09/28 14:10:56;;;;;;;0.55;0.38;;;;;;;15.68;55.23;98509.44;5061273;28;20028;-61
2022/09/28 14:13:40;;;;;;;0.45;0.45;;;;;;;15.51;58.41;98507.81;5081370;28;20063;-61
2022/09/28 14:16:17;;;;;;;1.38;0.65;;;;;;;15.41;58.89;98514.69;5089916;28;20115;-60
2022/09/28 14:19:28;;;;;;;1.85;0.60;;;;;;;15.23;56.55;98514.13;5079005;28;20077;-61
2022/09/28 14:22:06;;;;;;;3.75;0.80;;;;;;;15.08;58.39;98518.22;5077701;28;20071;-61
2022/09/28 14:24:54;;;;;;;0.65;0.65;;;;;;;14.98;59.97;98522.59;5060945;28;20489;-61
2022/09/28 14:27:39;;;;;;;0.57;0.52;;;;;;;14.89;59.89;98523.00;5093343;28;20094;-61
2022/09/28 14:30:52;;;;;;;0.60;0.60;;;;;;;14.78;59.95;98523.06;5076125;28;20071;-61
2022/09/28 14:33:23;;;;;;;0.98;0.60;;;;;;;14.78;58.98;98525.75;5081740;28;20071;-60
2022/09/28 14:36:04;;;;;;;2.08;0.57;;;;;;;14.75;61.55;98526.22;5087413;28;20070;-59
2022/09/28 14:41:33;;;;;;;3.22;0.70;;;;;;;14.74;63.08;98527.28;5080230;28;20044;-59
2022/09/28 14:44:02;;;;;;;2.25;0.57;;;;;;;14.75;59.24;98531.59;5088732;28;20036;-60
2022/09/28 14:46:29;;;;;;;0.95;0.65;;;;;;;14.71;58.97;98520.53;5075855;28;20059;-61
2022/09/28 14:49:02;;;;;;;1.10;0.87;;;;;;;14.70;59.43;98531.50;5085751;28;20072;-60
2022/09/28 14:51:30;;;;;;;0.57;0.57;;;;;;;14.57;59.49;98535.28;5077476;28;20086;-61
2022/09/28 14:54:01;;;;;;;0.57;0.52;;;;;;;14.51;60.22;98537.06;5070898;28;20046;-60
2022/09/28 14:56:43;;;;;;;1.15;0.80;;;;;;;14.46;64.57;98541.47;5070483;28;20055;-62
2022/09/28 14:59:18;;;;;;;0.98;0.77;;;;;;;14.54;65.16;98543.78;5070910;28;20052;-62
2022/09/28 15:01:51;;;;;;;0.45;0.45;;;;;;;14.47;68.23;98545.81;5072248;28;20033;-61
2022/09/28 15:04:17;;;;;;;0.68;0.65;;;;;;;14.31;68.66;98545.50;5072567;28;20039;-62
2022/09/28 15:06:45;;;;;;;1.57;0.70;;;;;;;14.18;69.63;98532.38;5070601;28;20093;-63
2022/09/28 15:09:40;;;;;;;5.30;0.93;;;;;;;14.13;72.04;98540.31;5072376;28;20293;-62
2022/09/28 15:12:22;;;;;;;1.05;0.60;;;;;;;13.88;74.16;98545.94;5062908;28;20052;-63
2022/09/28 15:14:55;;;;;;;1.35;0.80;;;;;;;13.69;74.67;98555.16;5072351;28;20111;-62
2022/09/28 15:17:50;;;;;;;1.30;1.10;;;;;;;13.46;78.38;98561.34;5071001;28;20052;-63
2022/09/28 15:20:35;;;;;;;1.75;0.93;;;;;;;13.29;82.91;98567.38;5070971;28;20052;-63
2022/09/28 15:23:01;;;;;;;3.67;1.00;;;;;;;13.34;82.38;98556.00;5072436;28;20066;-63
2022/09/28 15:25:28;;;;;;;1.25;0.82;;;;;;;13.38;78.83;98551.00;5072326;28;20028;-63
2022/09/28 15:28:17;;;;;;;1.65;0.95;;;;;;;13.24;80.25;98551.22;5072356;28;20032;-63
2022/09/28 15:30:44;;;;;;;5.35;1.00;;;;;;;13.08;82.58;98553.72;5071911;28;20477;-62
2022/09/28 15:36:23;;;;;;;0.77;0.68;;;;;;;12.97;87.28;98553.47;5072118;28;20032;-63
2022/09/28 15:38:56;;;;;;;1.13;0.80;;;;;;;12.82;89.85;98554.94;5072177;28;20033;-62
2022/09/28 15:41:23;;;;;;;1.98;1.00;;;;;;;12.91;91.55;98553.56;5070322;28;20079;-63
2022/09/28 15:44:09;;;;;;;1.27;0.95;;;;;;;12.75;97.13;98565.72;5072029;28;20052;-62
2022/09/28 15:46:43;;;;;;;4.50;1.35;;;;;;;12.86;96.35;98556.13;5060655;28;20600;-63
2022/09/28 15:49:35;;;;;;;1.25;0.93;;;;;;;12.69;99.60;98558.63;5071770;28;20045;-63
2022/09/28 15:52:01;;;;;;;3.92;1.00;;;;;;;12.83;97.05;98561.91;5071545;28;20046;-63
2022/09/28 15:54:47;;;;;;;1.17;0.93;;;;;;;12.65;96.31;98566.28;5071768;28;20028;-63
2022/09/28 15:57:31;;;;;;;1.63;1.02;;;;;;;12.53;100.00;98573.44;5071483;28;20098;-63
2022/09/28 15:59:58;;;;;;;1.30;1.00;;;;;;;12.51;100.00;98575.50;5071613;28;20072;-63
2022/09/28 16:02:25;;;;;;;3.05;1.10;;;;;;;12.58;99.84;98576.22;5071503;28;20047;-61
2022/09/28 16:04:54;;;;;;;4.72;1.13;;;;;;;12.45;97.59;98571.06;5071859;28;20046;-63
2022/09/28 16:07:50;;;;;;;3.33;1.80;;;;;;;12.33;95.71;98579.03;5071647;28;20504;-63
2022/09/28 16:10:15;;;;;;;1.08;0.82;;;;;;;12.12;91.71;98580.31;5071264;28;20115;-63
2022/09/28 16:12:45;;;;;;;1.88;1.00;;;;;;;12.12;90.49;98576.81;5071538;28;20108;-63
2022/09/28 16:15:20;;;;;;;1.38;0.95;;;;;;;12.04;91.40;98579.78;5071562;28;20486;-63
2022/09/28 16:17:51;;;;;;;1.77;0.90;;;;;;;12.06;90.91;98577.72;5071428;28;20090;-63
2022/09/28 16:20:22;;;;;;;1.48;0.90;;;;;;;12.08;90.67;98571.13;5071007;28;20071;-63
2022/09/28 16:22:48;;;;;;;2.20;0.75;;;;;;;12.05;91.05;98565.41;5071323;28;20515;-63
2022/09/28 16:25:23;;;;;;;3.83;1.10;;;;;;;12.07;89.75;98560.69;5071462;28;20036;-63
2022/09/28 16:27:50;;;;;;;1.23;0.90;;;;;;;12.02;88.22;98566.69;5071476;28;20485;-63
2022/09/28 16:30:24;;;;;;;1.67;1.00;;;;;;;12.06;86.24;98559.88;5071205;28;20032;-64
2022/09/28 16:32:49;;;;;;;0.75;0.75;;;;;;;11.99;89.06;98567.13;5071337;28;20665;-63
2022/09/28 16:35:31;;;;;;;1.02;0.93;;;;;;;11.92;90.14;98571.72;5071768;28;20035;-61
2022/09/28 16:38:13;;;;;;;1.13;0.90;;;;;;;11.90;92.08;98574.59;5071423;28;20082;-62
2022/09/28 16:40:48;;;;;;;1.33;1.20;;;;;;;11.91;93.27;98570.91;5071070;28;20046;-61
2022/09/28 16:43:26;;;;;;;3.00;1.70;;;;;;;11.91;94.64;98580.75;5071653;28;20094;-58
2022/09/28 16:45:58;;;;;;;1.90;1.20;;;;;;;11.95;95.33;98582.78;5071479;28;20424;-59
2022/09/28 16:48:29;;;;;;;2.58;1.35;;;;;;;12.01;95.77;98581.06;5070457;28;20406;-59
2022/09/28 16:50:55;;;;;;;1.25;1.00;;;;;;;11.85;99.68;98592.31;5071182;28;20479;-60
2022/09/28 16:56:06;;;;;;;2.55;1.55;;;;;;;11.46;100.00;98612.97;5071119;28;20036;-58
2022/09/28 16:58:32;;;;;;;1.63;1.00;;;;;;;11.50;98.03;98616.00;5069914;28;20102;-59
2022/09/28 17:00:58;;;;;;;2.17;0.93;;;;;;;11.37;99.19;98614.28;5070833;28;20033;-59
2022/09/28 17:03:24;;;;;;;1.17;1.02;;;;;;;11.38;96.97;98614.06;5071144;28;20482;-59